Time;durP1;ratioP1;P1;durP2;ratioP2;P2;SDS_P1;SDS_P2;PMS_P1;PMS_P2;Temp;Humidity;BMP_temperature;BMP_pressure;BME280_temperature;BME280_humidity;BME280_pressure;Samples;Min_cycle;Max_cycle;Signal;HPM_P1;HPM_P2
2022/08/11 00:01:15;;;;;;;0.10;0.10;;;;;;;22.20;60.84;102403.13;5037967;28;20025;-77
2022/08/11 00:04:01;;;;;;;0.10;0.10;;;;;;;22.20;60.48;102405.84;5040265;28;20037;-77
2022/08/11 00:06:44;;;;;;;0.05;0.05;;;;;;;22.25;60.13;102407.38;5037982;28;20238;-77
2022/08/11 00:09:14;;;;;;;0.13;0.13;;;;;;;22.17;60.38;102404.16;5036049;28;20028;-77
2022/08/11 00:11:57;;;;;;;0.10;0.10;;;;;;;22.22;60.26;102406.63;5037738;28;20091;-77
2022/08/11 00:14:26;;;;;;;0.10;0.10;;;;;;;22.16;59.99;102405.09;5039785;28;20060;-77
2022/08/11 00:16:58;;;;;;;0.00;0.00;;;;;;;22.16;60.04;102398.78;5039366;28;20033;-77
2022/08/11 00:19:28;;;;;;;0.40;0.30;;;;;;;22.12;60.71;102406.19;5039821;28;20025;-77
2022/08/11 00:21:55;;;;;;;0.20;0.20;;;;;;;22.10;60.66;102413.47;5034701;28;20419;-77
2022/08/11 00:24:23;;;;;;;0.13;0.13;;;;;;;22.09;60.38;102409.00;5039151;28;20037;-77
2022/08/11 00:26:53;;;;;;;0.20;0.20;;;;;;;22.09;60.51;102409.00;5040377;28;20029;-77
2022/08/11 00:29:20;;;;;;;0.03;0.03;;;;;;;22.06;60.39;102407.31;5039940;28;20641;-77
2022/08/11 00:31:55;;;;;;;0.10;0.10;;;;;;;22.08;60.27;102408.13;5036019;28;20029;-77
2022/08/11 00:34:25;;;;;;;0.45;0.30;;;;;;;22.04;60.24;102411.03;5038362;28;20071;-77
2022/08/11 00:36:56;;;;;;;0.00;0.00;;;;;;;22.01;60.27;102408.44;5041153;28;20030;-77
2022/08/11 00:39:25;;;;;;;0.10;0.10;;;;;;;21.96;60.60;102406.84;5029737;28;20065;-76
2022/08/11 00:44:36;;;;;;;0.00;0.00;;;;;;;21.94;60.20;102408.75;5111720;27;20388;-77
2022/08/11 00:50:16;;;;;;;0.10;0.10;;;;;;;21.93;60.25;102416.88;5085647;27;20402;-76
2022/08/11 00:53:22;;;;;;;0.10;0.10;;;;;;;21.92;60.73;102409.72;5071313;28;20060;-76
2022/08/11 01:07:34;;;;;;;0.10;0.10;;;;;;;21.84;60.50;102407.38;5105110;27;20381;-77
2022/08/11 01:18:51;;;;;;;0.10;0.10;;;;;;;21.77;59.88;102404.06;5068337;28;20405;-76
2022/08/11 01:21:45;;;;;;;0.10;0.10;;;;;;;21.73;60.27;102391.66;5053294;28;20052;-75
2022/08/11 01:24:46;;;;;;;0.10;0.10;;;;;;;21.71;60.32;102398.03;5052986;28;20020;-76
2022/08/11 01:27:41;;;;;;;0.00;0.00;;;;;;;21.62;60.30;102392.09;5043263;28;20480;-76
2022/08/11 01:36:13;;;;;;;0.10;0.10;;;;;;;21.53;60.36;102392.44;5102990;27;20396;-76
2022/08/11 01:44:38;;;;;;;0.38;0.38;;;;;;;21.42;60.61;102389.31;5139400;27;20354;-76
2022/08/11 01:47:49;;;;;;;0.10;0.10;;;;;;;21.39;60.74;102394.84;5140199;27;20030;-76
2022/08/11 01:50:35;;;;;;;0.10;0.10;;;;;;;21.35;60.62;102394.09;5131012;27;20118;-75
2022/08/11 01:53:34;;;;;;;0.10;0.10;;;;;;;21.31;60.35;102393.34;5135775;27;20031;-75
2022/08/11 01:56:26;;;;;;;0.13;0.13;;;;;;;21.30;60.30;102393.41;5139246;27;20084;-75
2022/08/11 02:02:01;;;;;;;0.40;0.40;;;;;;;21.25;60.27;102392.72;5074970;28;20396;-76
2022/08/11 02:07:53;;;;;;;0.10;0.10;;;;;;;21.20;60.36;102395.59;5007535;28;20400;-76
2022/08/11 02:13:35;;;;;;;0.10;0.10;;;;;;;21.16;60.34;102399.34;5087464;27;20405;-76
2022/08/11 02:16:17;;;;;;;0.10;0.10;;;;;;;21.12;60.46;102403.09;5092191;28;20051;-76
2022/08/11 02:25:00;;;;;;;0.10;0.10;;;;;;;21.07;59.98;102394.31;5094023;28;20458;-76
2022/08/11 02:27:54;;;;;;;0.10;0.10;;;;;;;20.99;60.16;102392.78;5082600;28;20034;-76
2022/08/11 02:30:26;;;;;;;0.10;0.10;;;;;;;20.95;60.07;102390.31;5093616;28;20552;-76
2022/08/11 02:36:09;;;;;;;0.10;0.10;;;;;;;20.93;60.29;102390.34;4988609;28;20406;-76
2022/08/11 02:47:37;;;;;;;0.30;0.30;;;;;;;20.71;60.99;102381.31;5067252;27;20386;-77
2022/08/11 02:55:34;;;;;;;0.00;0.00;;;;;;;20.85;60.07;102369.09;5094295;28;20392;-77
2022/08/11 02:58:29;;;;;;;0.10;0.10;;;;;;;20.87;60.08;102369.03;5084966;28;20039;-77
2022/08/11 03:01:22;;;;;;;0.10;0.10;;;;;;;20.82;60.27;102369.22;5070390;28;20433;-77
2022/08/11 03:04:05;;;;;;;0.13;0.13;;;;;;;20.81;60.50;102367.47;5075556;28;20513;-77
2022/08/11 03:17:56;;;;;;;0.13;0.13;;;;;;;20.63;60.64;102377.09;5062908;28;20036;-76
2022/08/11 03:23:17;;;;;;;0.00;0.00;;;;;;;20.57;60.11;102369.25;5072451;28;20381;-76
2022/08/11 03:25:57;;;;;;;0.52;0.52;;;;;;;20.54;60.49;102366.69;5058319;28;20025;-76
2022/08/11 03:31:33;;;;;;;0.10;0.10;;;;;;;20.49;60.58;102361.47;5071311;28;20048;-77
2022/08/11 03:34:06;;;;;;;0.00;0.00;;;;;;;20.43;60.68;102361.69;5055747;28;20065;-76
2022/08/11 03:36:58;;;;;;;0.17;0.17;;;;;;;20.48;60.48;102366.91;5058781;28;20437;-76
2022/08/11 03:39:55;;;;;;;0.10;0.10;;;;;;;20.44;60.49;102368.84;5043153;28;20093;-76
2022/08/11 03:42:47;;;;;;;0.10;0.10;;;;;;;20.44;60.60;102360.75;5045660;28;20040;-76
2022/08/11 03:51:21;;;;;;;0.10;0.10;;;;;;;20.35;60.77;102370.06;5104745;28;20392;-77
2022/08/11 03:54:15;;;;;;;0.00;0.00;;;;;;;20.34;60.78;102372.81;5088667;28;20390;-77
2022/08/11 03:57:16;;;;;;;0.00;0.00;;;;;;;20.33;60.45;102366.53;5082409;28;20109;-78
2022/08/11 04:02:50;;;;;;;0.10;0.10;;;;;;;20.26;60.73;102367.72;5065674;28;20406;-76
2022/08/11 04:05:55;;;;;;;0.00;0.00;;;;;;;20.27;60.70;102361.38;5067850;28;20078;-77
2022/08/11 04:09:01;;;;;;;0.05;0.05;;;;;;;20.26;60.59;102367.72;5039683;28;20056;-77
2022/08/11 04:20:42;;;;;;;0.05;0.05;;;;;;;20.19;60.82;102368.88;5068346;28;20406;-77
2022/08/11 04:23:41;;;;;;;0.30;0.30;;;;;;;20.17;60.62;102363.53;5067704;28;20044;-76
2022/08/11 04:29:09;;;;;;;0.10;0.10;;;;;;;20.11;60.96;102370.94;5070607;28;20060;-77
2022/08/11 04:31:42;;;;;;;0.32;0.25;;;;;;;20.07;61.13;102370.19;5058511;28;20422;-77
2022/08/11 04:34:35;;;;;;;0.10;0.10;;;;;;;20.09;60.98;102362.94;5069248;28;20513;-77
2022/08/11 04:37:33;;;;;;;0.10;0.10;;;;;;;20.11;60.83;102368.25;5067165;28;20024;-77
2022/08/11 04:40:32;;;;;;;0.08;0.08;;;;;;;20.13;60.62;102369.97;5053544;28;20033;-77
2022/08/11 04:43:35;;;;;;;0.03;0.03;;;;;;;20.15;60.55;102367.19;5066592;28;20040;-77
2022/08/11 04:46:41;;;;;;;0.10;0.10;;;;;;;20.15;60.69;102359.13;5065758;28;20494;-77
2022/08/11 05:06:54;;;;;;;0.10;0.10;;;;;;;20.20;61.04;102367.94;5075355;27;20408;-77
2022/08/11 05:09:43;;;;;;;0.10;0.10;;;;;;;20.16;61.35;102366.28;5065080;28;20037;-76
2022/08/11 05:12:31;;;;;;;0.10;0.10;;;;;;;20.23;61.15;102359.75;5066999;28;20518;-77
2022/08/11 05:35:40;;;;;;;0.00;0.00;;;;;;;20.46;60.81;102366.06;5059912;28;20039;-76
2022/08/11 05:57:59;;;;;;;0.10;0.10;;;;;;;20.81;60.26;102371.97;5058225;28;20040;-76
2022/08/11 06:00:25;;;;;;;0.10;0.10;;;;;;;20.88;60.07;102372.63;5061141;28;20566;-75
2022/08/11 06:02:56;;;;;;;0.10;0.10;;;;;;;20.93;60.19;102374.19;5065920;28;20040;-75
2022/08/11 06:05:23;;;;;;;0.20;0.20;;;;;;;20.96;60.07;102371.38;5061391;28;20087;-77
2022/08/11 06:07:52;;;;;;;0.10;0.10;;;;;;;20.96;59.76;102374.06;5067940;28;20025;-78
2022/08/11 06:10:38;;;;;;;0.10;0.10;;;;;;;21.10;59.81;102378.03;5059240;28;20044;-78
2022/08/11 06:13:06;;;;;;;0.10;0.10;;;;;;;21.10;59.75;102378.91;5063239;28;20016;-78
2022/08/11 06:15:43;;;;;;;0.10;0.10;;;;;;;21.15;59.66;102365.25;5048694;22;20138;-82
2022/08/11 06:18:11;;;;;;;0.05;0.05;;;;;;;21.20;59.59;102371.34;5018106;28;20037;-82
2022/08/11 06:20:55;;;;;;;0.00;0.00;;;;;;;21.31;59.61;102366.38;5017102;28;20038;-82
2022/08/11 06:23:24;;;;;;;0.10;0.10;;;;;;;21.31;59.40;102374.47;5017955;28;20026;-82
2022/08/11 06:25:52;;;;;;;4.38;0.45;;;;;;;21.36;59.34;102382.38;5015737;28;20055;-82
2022/08/11 06:28:29;;;;;;;0.40;0.40;;;;;;;21.42;59.22;102381.22;5015570;28;20556;-82
2022/08/11 06:30:56;;;;;;;0.10;0.10;;;;;;;21.46;59.48;102374.78;5014418;28;20033;-82
2022/08/11 06:33:38;;;;;;;0.50;0.50;;;;;;;21.54;59.06;102378.00;5014038;28;20536;-82
2022/08/11 06:39:13;;;;;;;0.10;0.10;;;;;;;21.69;59.33;102381.91;5090457;28;20324;-82
2022/08/11 06:41:55;;;;;;;0.10;0.10;;;;;;;21.73;59.36;102383.56;5088620;28;20069;-82
2022/08/11 06:44:31;;;;;;;0.00;0.00;;;;;;;21.79;59.30;102379.72;5090128;28;20107;-83
2022/08/11 06:47:08;;;;;;;0.10;0.10;;;;;;;21.87;59.16;102379.38;5082730;28;20507;-82
2022/08/11 06:52:34;;;;;;;0.10;0.10;;;;;;;22.00;59.17;102377.03;5089632;28;20112;-82
2022/08/11 07:00:26;;;;;;;;;;;;;;;22.22;58.52;102379.63;5089380;28;20028;-82
2022/08/11 07:01:10;;;;;;;0.10;0.10;;;;;;;22.30;58.31;102382.88;5093204;28;20065;-81
2022/08/11 07:03:39;;;;;;;;;;;;;;;22.48;58.03;102381.22;5092068;28;20122;-82
2022/08/11 07:06:24;;;;;;;0.00;0.00;;;;;;;22.47;57.85;102379.44;5088321;28;19909;-83
2022/08/11 07:17:48;;;;;;;0.10;0.10;;;;;;;22.81;56.74;102382.41;5089612;28;20041;-83
2022/08/11 07:28:59;;;;;;;0.10;0.10;;;;;;;23.24;55.58;102370.41;5090831;28;20036;-83
2022/08/11 07:34:26;;;;;;;0.65;0.65;;;;;;;23.54;55.48;102377.03;5125373;27;20148;-80
2022/08/11 07:36:57;;;;;;;0.57;0.57;;;;;;;23.58;55.38;102368.69;5093643;28;20048;-82
2022/08/11 07:39:27;;;;;;;0.10;0.10;;;;;;;23.67;55.21;102377.31;5091777;28;20033;-82
2022/08/11 07:41:56;;;;;;;0.10;0.10;;;;;;;23.76;54.59;102371.41;5090320;28;20036;-82
2022/08/11 07:44:28;;;;;;;0.10;0.10;;;;;;;23.87;54.27;102368.16;5090949;28;20036;-82
2022/08/11 07:52:38;;;;;;;0.20;0.20;;;;;;;24.22;52.96;102369.03;5098456;28;20494;-82
2022/08/11 07:55:10;;;;;;;0.10;0.10;;;;;;;24.32;52.76;102365.81;5098553;28;20168;-83
2022/08/11 08:19:49;;;;;;;0.10;0.10;;;;;;;25.28;49.83;102357.78;5094053;28;20032;-84
2022/08/11 08:22:21;;;;;;;0.10;0.10;;;;;;;25.35;49.35;102364.59;5092847;28;20043;-83
2022/08/11 08:24:48;;;;;;;0.10;0.10;;;;;;;25.46;49.45;102361.25;5093981;28;20028;-83
2022/08/11 08:27:15;;;;;;;0.10;0.10;;;;;;;25.58;49.15;102365.09;5095624;28;20039;-83
2022/08/11 08:32:30;;;;;;;0.30;0.30;;;;;;;25.80;48.05;102365.53;5089385;28;20123;-83
2022/08/11 08:34:58;;;;;;;0.28;0.28;;;;;;;25.91;48.10;102361.31;5090204;28;20028;-85
2022/08/11 08:37:26;;;;;;;0.10;0.10;;;;;;;26.03;47.56;102360.53;5094226;28;20047;-83
2022/08/11 08:39:53;;;;;;;0.20;0.20;;;;;;;26.14;48.10;102351.78;5096041;28;20119;-83
2022/08/11 08:45:09;;;;;;;0.10;0.10;;;;;;;26.43;46.03;102354.47;5109463;27;20379;-87
2022/08/11 08:47:41;;;;;;;0.20;0.20;;;;;;;26.53;46.36;102354.78;5112509;27;20057;-85
2022/08/11 08:50:11;;;;;;;0.20;0.20;;;;;;;26.63;46.10;102358.63;5126141;27;20038;-85
2022/08/11 08:52:41;;;;;;;0.20;0.20;;;;;;;26.77;45.45;102352.38;5133360;27;20024;-86
2022/08/11 08:55:15;;;;;;;0.10;0.10;;;;;;;26.92;45.34;102350.50;5120050;27;20024;-85
2022/08/11 08:57:47;;;;;;;0.10;0.10;;;;;;;27.01;45.20;102341.72;5133867;27;20019;-85
2022/08/11 09:00:15;;;;;;;0.10;0.10;;;;;;;27.13;44.27;102350.91;5107414;28;20056;-84
2022/08/11 09:02:43;;;;;;;0.10;0.10;;;;;;;27.25;43.17;102351.91;5112896;28;20529;-85
2022/08/11 09:05:10;;;;;;;0.10;0.10;;;;;;;27.23;43.92;102351.16;5097947;28;20052;-85
2022/08/11 09:07:37;;;;;;;0.63;0.45;;;;;;;27.46;44.44;102354.22;5105791;28;20550;-85
2022/08/11 09:10:05;;;;;;;0.20;0.20;;;;;;;27.58;43.62;102347.94;5119227;28;20119;-86
2022/08/11 09:12:33;;;;;;;0.10;0.10;;;;;;;27.72;43.84;102347.81;5132980;27;20029;-85
2022/08/11 09:15:04;;;;;;;0.10;0.10;;;;;;;27.76;42.22;102346.66;5136632;27;20030;-85
2022/08/11 09:17:37;;;;;;;0.43;0.43;;;;;;;27.93;41.94;102350.91;5134117;27;20052;-85
2022/08/11 09:20:07;;;;;;;0.55;0.55;;;;;;;28.00;41.08;102343.19;5135375;27;20130;-86
2022/08/11 09:28:17;;;;;;;0.22;0.22;;;;;;;28.44;40.09;102331.94;5138001;27;20035;-85
2022/08/11 09:30:45;;;;;;;0.17;0.17;;;;;;;28.59;40.67;102336.28;5138655;27;20043;-86
2022/08/11 09:33:15;;;;;;;0.13;0.13;;;;;;;28.69;40.85;102334.66;5138859;27;20028;-86
2022/08/11 09:35:42;;;;;;;0.10;0.10;;;;;;;28.75;39.95;102336.06;5130898;27;20026;-85
2022/08/11 09:40:59;;;;;;;0.10;0.10;;;;;;;29.02;40.99;102324.06;5124755;28;20043;-86
2022/08/11 09:46:14;;;;;;;0.10;0.10;;;;;;;29.22;37.62;102311.59;5119153;27;20067;-85
2022/08/11 09:48:43;;;;;;;0.60;0.60;;;;;;;29.26;35.89;102309.53;5136421;27;20062;-86
2022/08/11 09:51:10;;;;;;;0.98;0.70;;;;;;;29.39;35.55;102310.34;5136987;27;20059;-86
2022/08/11 09:53:40;;;;;;;0.10;0.10;;;;;;;29.53;36.88;102309.28;5135169;27;20019;-87
2022/08/11 09:59:03;;;;;;;0.10;0.10;;;;;;;29.75;37.16;102308.47;5082353;28;20029;-86
2022/08/11 10:01:41;;;;;;;0.10;0.10;;;;;;;29.88;36.36;102311.09;5099223;28;20027;-83
2022/08/11 10:04:15;;;;;;;0.25;0.25;;;;;;;30.01;36.59;102302.81;5117302;28;20096;-84
2022/08/11 10:07:14;;;;;;;0.10;0.10;;;;;;;30.08;36.09;102303.19;5122047;28;20050;-85
2022/08/11 10:09:55;;;;;;;0.20;0.20;;;;;;;30.27;35.31;102306.19;5106794;28;20323;-85
2022/08/11 10:12:26;;;;;;;0.10;0.10;;;;;;;30.32;35.40;102301.22;5106442;28;20149;-84
2022/08/11 10:20:38;;;;;;;0.10;0.10;;;;;;;30.58;32.48;102297.34;5082176;28;20500;-85
2022/08/11 10:28:40;;;;;;;0.10;0.10;;;;;;;30.89;34.68;102278.38;5115273;28;20155;-84
2022/08/11 10:34:00;;;;;;;0.30;0.30;;;;;;;31.06;31.83;102274.22;5117782;28;20066;-86
2022/08/11 10:36:47;;;;;;;0.10;0.10;;;;;;;31.21;31.32;102283.84;5102366;28;20028;-85
2022/08/11 10:39:17;;;;;;;0.28;0.28;;;;;;;31.36;33.48;102278.06;5101106;28;20107;-85
2022/08/11 10:44:38;;;;;;;0.00;0.00;;;;;;;31.48;33.76;102270.63;5114529;28;20042;-85
2022/08/11 10:47:38;;;;;;;0.10;0.10;;;;;;;31.55;31.24;102278.19;5100468;28;20081;-85
2022/08/11 10:58:48;;;;;;;0.10;0.10;;;;;;;31.94;29.14;102256.53;5108804;28;20036;-85
2022/08/11 11:01:00;;;;;;;0.10;0.10;;;;;;;31.94;29.26;102258.41;5098971;28;20411;-85
2022/08/11 11:03:29;;;;;;;0.22;0.22;;;;;;;32.09;29.80;102262.50;5111123;28;20103;-85
2022/08/11 11:06:24;;;;;;;0.22;0.22;;;;;;;32.19;29.79;102254.34;5106625;28;20036;-85
2022/08/11 11:08:56;;;;;;;0.30;0.30;;;;;;;32.29;28.19;102254.38;5098238;28;20098;-85
2022/08/11 11:19:56;;;;;;;0.20;0.20;;;;;;;32.58;26.82;102254.44;5080769;28;20398;-80
2022/08/11 11:22:46;;;;;;;0.20;0.20;;;;;;;32.68;27.58;102243.47;5078558;28;20041;-82
2022/08/11 11:34:14;;;;;;;0.20;0.20;;;;;;;33.13;28.73;102239.31;5116251;27;20399;-82
2022/08/11 11:36:48;;;;;;;0.20;0.20;;;;;;;33.22;27.28;102246.69;5113940;28;20063;-82
2022/08/11 11:39:22;;;;;;;0.10;0.10;;;;;;;33.30;27.25;102245.09;5126610;27;20278;-79
2022/08/11 11:41:51;;;;;;;0.15;0.15;;;;;;;33.34;26.85;102241.06;5138387;27;20382;-80
2022/08/11 11:44:21;;;;;;;0.10;0.10;;;;;;;33.44;26.54;102236.41;5139733;27;20027;-81
2022/08/11 11:46:48;;;;;;;0.03;0.03;;;;;;;33.53;28.80;102232.75;5139251;27;20074;-80
2022/08/11 11:49:17;;;;;;;0.25;0.25;;;;;;;33.61;28.18;102233.91;5141199;27;20087;-80
2022/08/11 11:51:46;;;;;;;0.00;0.00;;;;;;;33.60;25.65;102230.28;5123588;27;20027;-81
2022/08/11 11:54:16;;;;;;;0.20;0.20;;;;;;;33.61;26.41;102228.41;5123980;27;20057;-80
2022/08/11 11:56:44;;;;;;;0.10;0.10;;;;;;;33.73;25.32;102218.94;5105976;28;20127;-81
2022/08/11 12:01:59;;;;;;;0.45;0.30;;;;;;;33.90;25.11;102221.94;5130461;27;20032;-80
2022/08/11 12:04:26;;;;;;;0.10;0.10;;;;;;;33.99;26.70;102226.56;5115259;28;20055;-81
2022/08/11 12:08:08;;;;;;;0.03;0.03;;;;;;;34.05;26.45;102217.69;5112146;28;20032;-81
2022/08/11 12:09:40;;;;;;;0.13;0.13;;;;;;;34.12;27.44;102206.94;5115793;28;20619;-80
2022/08/11 12:14:54;;;;;;;0.65;0.65;;;;;;;34.15;23.69;102207.50;5104858;22;20045;-78
2022/08/11 12:17:21;;;;;;;1.38;0.40;;;;;;;34.22;26.51;102199.50;5057186;28;20048;-78
2022/08/11 12:19:48;;;;;;;0.10;0.10;;;;;;;34.27;26.34;102207.28;5057870;28;20021;-78
2022/08/11 12:27:52;;;;;;;0.17;0.17;;;;;;;34.57;24.17;102200.59;5045459;28;20392;-76
2022/08/11 12:30:18;;;;;;;0.35;0.20;;;;;;;34.67;25.58;102192.25;5040846;28;20030;-76
2022/08/11 12:32:45;;;;;;;0.13;0.13;;;;;;;34.73;25.58;102186.13;5043878;28;20449;-76
2022/08/11 12:35:14;;;;;;;0.20;0.20;;;;;;;34.79;26.30;102191.00;5044152;28;20402;-75
2022/08/11 12:37:46;;;;;;;0.05;0.05;;;;;;;34.84;24.62;102176.75;5045231;28;20033;-76
2022/08/11 12:45:59;;;;;;;0.20;0.20;;;;;;;35.04;25.14;102174.69;5032373;28;20050;-76
2022/08/11 12:54:13;;;;;;;0.10;0.10;;;;;;;35.10;23.61;102165.78;5031476;28;20517;-73
2022/08/11 13:05:16;;;;;;;0.03;0.03;;;;;;;35.45;24.18;102161.22;5032201;28;20407;-74
2022/08/11 13:07:44;;;;;;;0.00;0.00;;;;;;;35.52;22.99;102158.66;5030277;28;20502;-75
2022/08/11 13:12:46;;;;;;;0.00;0.00;;;;;;;35.60;24.27;102155.09;5028103;28;20025;-76
2022/08/11 13:13:03;;;;;;;0.10;0.10;;;;;;;35.52;24.21;102149.53;5029286;28;20412;-75
2022/08/11 13:15:30;;;;;;;0.10;0.10;;;;;;;35.66;22.20;102153.56;5030582;28;20041;-73
2022/08/11 13:17:57;;;;;;;0.00;0.00;;;;;;;35.76;23.37;102149.63;5031566;28;20717;-76
2022/08/11 13:20:25;;;;;;;0.15;0.15;;;;;;;35.83;23.42;102140.69;5030380;28;20033;-76
2022/08/11 13:22:54;;;;;;;0.32;0.25;;;;;;;35.91;25.18;102141.63;5025853;28;20112;-76
2022/08/11 13:25:24;;;;;;;0.05;0.05;;;;;;;35.95;23.24;102144.91;5030232;28;20026;-76
2022/08/11 13:27:52;;;;;;;0.05;0.05;;;;;;;36.02;23.15;102140.44;5031606;28;20044;-76
2022/08/11 13:33:10;;;;;;;0.00;0.00;;;;;;;36.04;23.30;102135.66;5029371;28;20073;-76
2022/08/11 13:35:37;;;;;;;2.65;1.27;;;;;;;36.01;24.63;102135.97;5031513;28;20029;-76
2022/08/11 13:38:04;;;;;;;0.20;0.20;;;;;;;36.06;23.26;102125.28;5029070;28;20029;-76
2022/08/11 13:40:32;;;;;;;0.05;0.05;;;;;;;36.09;23.36;102135.13;5030139;28;20039;-76
2022/08/11 13:42:59;;;;;;;0.00;0.00;;;;;;;36.17;22.99;102123.25;5031093;28;20032;-76
2022/08/11 13:45:26;;;;;;;0.00;0.00;;;;;;;36.28;22.62;102125.69;5030184;28;20651;-76
2022/08/11 13:47:55;;;;;;;0.10;0.10;;;;;;;36.38;20.90;102126.41;5028991;28;20087;-76
2022/08/11 13:51:29;;;;;;;0.45;0.45;;;;;;;36.46;22.64;102128.31;5031124;28;20030;-76
2022/08/11 13:53:11;;;;;;;0.00;0.00;;;;;;;36.51;22.97;102125.03;5028414;28;20064;-76
2022/08/11 13:55:40;;;;;;;0.13;0.13;;;;;;;36.57;22.89;102124.34;5028153;28;20032;-76
2022/08/11 13:58:09;;;;;;;0.00;0.00;;;;;;;36.55;21.38;102127.28;5031158;28;20475;-76
2022/08/11 14:00:36;;;;;;;0.20;0.20;;;;;;;36.65;22.09;102105.03;5029902;28;20022;-76
2022/08/11 14:03:08;;;;;;;0.00;0.00;;;;;;;36.63;21.71;102111.78;5030582;28;20029;-76
2022/08/11 14:05:50;;;;;;;0.10;0.10;;;;;;;36.72;23.73;102122.59;5029318;28;20036;-76
2022/08/11 14:08:23;;;;;;;0.10;0.10;;;;;;;36.71;22.36;102111.75;5029517;28;20075;-76
2022/08/11 14:13:36;;;;;;;0.32;0.20;;;;;;;36.78;23.19;102106.41;5029856;28;20595;-76
2022/08/11 14:13:40;;;;;;;0.10;0.10;;;;;;;36.82;22.63;102099.47;5030785;28;20091;-76
2022/08/11 14:16:14;;;;;;;0.00;0.00;;;;;;;36.83;21.50;102101.22;5028825;28;20072;-76
2022/08/11 14:18:45;;;;;;;0.32;0.32;;;;;;;36.97;23.40;102100.50;5030482;28;20034;-76
2022/08/11 14:24:03;;;;;;;0.25;0.25;;;;;;;37.12;24.66;102086.00;5025178;28;20041;-76
2022/08/11 14:26:37;;;;;;;0.85;0.85;;;;;;;37.16;25.05;102095.63;5027198;28;20049;-76
2022/08/11 14:31:51;;;;;;;0.00;0.00;;;;;;;37.06;23.37;102088.41;5066386;28;20409;-75
2022/08/11 14:34:21;;;;;;;0.13;0.13;;;;;;;36.99;23.94;102084.63;5066131;28;20472;-76
2022/08/11 14:36:52;;;;;;;0.10;0.10;;;;;;;37.11;23.45;102087.03;5066964;28;20052;-75
2022/08/11 14:39:24;;;;;;;;;;;;;;;37.24;23.03;102088.19;5063887;28;20036;-75
2022/08/11 14:47:36;;;;;;;0.15;0.15;;;;;;;37.29;23.88;102082.13;5066164;28;20501;-75
2022/08/11 14:50:05;;;;;;;0.00;0.00;;;;;;;37.36;24.13;102074.00;5065649;28;20028;-74
2022/08/11 14:52:33;;;;;;;0.00;0.00;;;;;;;37.40;24.08;102075.38;5050495;28;20063;-76
2022/08/11 14:57:48;;;;;;;0.00;0.00;;;;;;;37.36;24.88;102074.00;5051297;28;20094;-76
2022/08/11 15:00:17;;;;;;;0.30;0.10;;;;;;;37.38;25.08;102067.25;5056230;28;20028;-76
2022/08/11 15:03:18;;;;;;;0.00;0.00;;;;;;;37.39;24.19;102057.94;5060132;28;20051;-76
2022/08/11 15:05:35;;;;;;;0.00;0.00;;;;;;;37.52;24.48;102070.31;5050111;28;20041;-76
2022/08/11 15:08:01;;;;;;;0.98;0.88;;;;;;;37.41;23.74;102065.19;5054344;28;20057;-76
2022/08/11 15:10:28;;;;;;;0.00;0.00;;;;;;;37.41;23.76;102066.03;5056911;28;20021;-75
2022/08/11 15:12:55;;;;;;;0.00;0.00;;;;;;;37.33;24.47;102064.13;5054747;28;20101;-76
2022/08/11 15:18:15;;;;;;;0.05;0.05;;;;;;;37.36;22.94;102062.94;5052829;28;20410;-77
2022/08/11 15:37:24;;;;;;;0.05;0.05;;;;;;;37.25;23.34;102069.72;5050738;28;20112;-76
2022/08/11 15:37:30;;;;;;;0.25;0.25;;;;;;;37.07;24.33;102059.75;5058896;28;20060;-76
2022/08/11 15:45:47;;;;;;;0.22;0.22;;;;;;;37.20;24.99;102053.66;5072807;28;20461;-77
2022/08/11 15:48:19;;;;;;;1.80;0.43;;;;;;;37.18;23.73;102044.69;5077853;28;20406;-77
2022/08/11 15:50:55;;;;;;;0.75;0.75;;;;;;;37.06;22.73;102040.56;5071362;28;20136;-77
2022/08/11 15:53:39;;;;;;;0.20;0.20;;;;;;;37.12;24.34;102039.03;5061396;28;20029;-77
2022/08/11 15:56:07;;;;;;;0.20;0.20;;;;;;;37.06;24.87;102030.41;5071254;28;20024;-76
2022/08/11 16:04:18;;;;;;;0.10;0.10;;;;;;;37.01;24.02;102031.97;5064517;28;20052;-77
2022/08/11 16:07:10;;;;;;;0.08;0.08;;;;;;;36.92;24.49;102028.38;5058049;28;20029;-77
2022/08/11 16:09:44;;;;;;;0.00;0.00;;;;;;;36.97;25.53;102025.94;5074109;28;20467;-77
2022/08/11 16:12:30;;;;;;;0.00;0.00;;;;;;;36.96;26.92;102029.72;5066923;28;20028;-78
2022/08/11 16:17:53;;;;;;;0.08;0.08;;;;;;;36.84;25.55;102022.81;5053834;28;20106;-77
2022/08/11 16:20:22;;;;;;;0.03;0.03;;;;;;;36.73;25.36;102019.41;5068651;28;20036;-77
2022/08/11 16:22:53;;;;;;;0.10;0.10;;;;;;;36.69;25.56;102018.06;5054652;28;20033;-76
2022/08/11 16:25:22;;;;;;;0.00;0.00;;;;;;;36.66;25.50;102012.88;5068893;28;20024;-76
2022/08/11 16:28:07;;;;;;;0.73;0.45;;;;;;;36.70;25.64;102013.38;5065523;28;20792;-77
2022/08/11 16:30:37;;;;;;;0.57;0.32;;;;;;;36.64;26.26;102012.19;5077648;28;20033;-77
2022/08/11 16:33:05;;;;;;;0.10;0.10;;;;;;;36.58;25.70;102012.91;5076901;28;20033;-77
2022/08/11 16:38:39;;;;;;;0.00;0.00;;;;;;;36.65;25.83;102005.66;5056101;28;20048;-77
2022/08/11 16:46:58;;;;;;;0.13;0.13;;;;;;;36.71;25.69;101999.41;5065437;28;20494;-78
2022/08/11 16:49:50;;;;;;;0.05;0.05;;;;;;;36.42;25.72;101998.06;5114201;27;20477;-77
2022/08/11 16:52:17;;;;;;;0.05;0.05;;;;;;;36.42;26.95;102000.81;5092959;28;20066;-77
2022/08/11 16:54:46;;;;;;;0.00;0.00;;;;;;;36.33;25.25;101992.72;5102690;28;20519;-77
2022/08/11 17:00:11;;;;;;;0.00;0.00;;;;;;;36.40;27.40;101989.13;5081231;28;20032;-77
2022/08/11 17:14:30;;;;;;;0.10;0.10;;;;;;;36.08;25.78;101985.31;5089425;28;20135;-77
2022/08/11 17:17:00;;;;;;;0.00;0.00;;;;;;;35.87;26.25;101977.53;5082201;28;20119;-77
2022/08/11 17:19:30;;;;;;;0.10;0.10;;;;;;;35.91;27.48;101983.59;5081816;28;20028;-77
2022/08/11 17:24:46;;;;;;;0.10;0.10;;;;;;;35.79;26.49;101986.66;5091967;28;20054;-77
2022/08/11 17:27:16;;;;;;;0.00;0.00;;;;;;;35.73;26.40;101981.81;5093135;28;20048;-76
2022/08/11 17:29:56;;;;;;;0.20;0.20;;;;;;;35.70;26.23;101979.38;5082658;28;20578;-76
2022/08/11 17:35:37;;;;;;;0.20;0.20;;;;;;;35.56;27.32;101977.31;5097463;28;20526;-77
2022/08/11 17:38:20;;;;;;;0.30;0.30;;;;;;;35.63;27.23;101978.34;5086777;28;20043;-77
2022/08/11 17:49:19;;;;;;;0.30;0.30;;;;;;;35.43;27.30;101978.66;5083184;28;20094;-77
2022/08/11 18:00:11;;;;;;;0.10;0.10;;;;;;;34.55;27.97;101989.88;5080390;28;20036;-79
2022/08/11 18:05:33;;;;;;;1.55;0.85;;;;;;;33.79;29.23;101997.59;5068047;28;20033;-77
